Latest Coastal Weather Observations for Portland Harbour

IDV60701

Issued at 6:25 pm EST Monday 21 April 2014 (issued every 10 minutes, with the page automatically refreshed every 10 minutes)

About coastal observations | Map of coastal stations | Coastal observations for VIC | Marine services | Other Formats
Station Details ID: 090192 Name: PORTLAND NTC AWS Lat: -38.34 Lon: 141.61 Height: 0.0 m
Data from the previous 72 hours. | See also: Recent months for locations in Victoria
Date/Time
EST
Temp

°C
Wind Pressure Rain
since 9am
mm
Weather Cloud Vis
km
Sea
Height
m
Swell
Dir
 
Speed
knots
Gust
knots
hPa Trend Height
m
Period
s
Dir
21/06:00pm 21.6 NNW 11 17 1009.2 - - - - - - - - -
21/05:30pm 21.5 NNW 11 17 1008.5 - - - - - - - - -
21/05:00pm 21.3 NNW 12 16 1008.3 - - - - - - - - -
21/04:30pm 21.1 NNW 16 20 1008.3 - - - - - - - - -
21/04:00pm 21.4 NNW 18 24 1008.3 - - - - - - - - -
21/03:30pm 21.0 N 20 26 1008.5 - - - - - - - - -
21/03:00pm 20.7 N 21 27 1008.5 - - - - - - - - -
21/02:30pm 20.6 N 19 22 1008.9 - - - - - - - - -
21/02:00pm 19.4 N 19 24 1009.0 - - - - - - - - -
21/01:30pm 20.0 NNW 17 22 1010.0 - - - - - - - - -
21/01:17pm 19.9 NNW 19 30 1010.3 - - - - - - - - -
21/01:00pm 19.1 N 18 23 1010.3 - - - - - - - - -
21/12:30pm 18.1 N 14 19 1011.4 - - - - - - - - -
21/12:00pm 16.8 NNE 6 10 1012.2 - - - - - - - - -
21/11:30am 16.3 NNE 6 8 1012.8 - - - - - - - - -
21/11:00am 15.9 NNW 4 7 1013.9 - - - - - - - - -
21/10:30am 16.6 N 9 12 1013.9 - - - - - - - - -
21/10:00am 15.7 N 11 14 1013.7 - - - - - - - - -
21/09:30am 15.2 N 10 13 1014.1 - - - - - - - - -
21/09:00am 14.4 NNE 9 11 1014.9 - - - - - - - - -
21/08:30am 14.4 NNE 8 9 1015.4 - - - - - - - - -
21/08:00am 14.1 N 7 8 1015.4 - - - - - - - - -
21/07:30am 14.0 NNW 5 6 1015.8 - - - - - - - - -
21/07:00am 13.9 N 9 11 1015.6 - - - - - - - - -
21/06:30am 13.7 NNW 5 6 1016.0 - - - - - - - - -
21/06:00am 13.9 NNW 7 10 1015.6 - - - - - - - - -
21/05:30am 13.9 N 4 6 1015.3 - - - - - - - - -
21/05:00am 13.8 NNW 6 9 1015.8 - - - - - - - - -
21/04:30am 13.9 NNW 6 8 1015.4 - - - - - - - - -
21/04:00am 13.6 NW 5 7 1015.6 - - - - - - - - -
21/03:30am 13.5 NW 3 6 1015.0 - - - - - - - - -
21/03:00am 13.5 NW 5 8 1015.4 - - - - - - - - -
21/02:30am 13.5 NNW 7 8 1015.6 - - - - - - - - -
21/02:00am 13.7 WNW 6 7 1015.9 - - - - - - - - -
21/01:30am 13.8 WNW 6 9 1016.0 - - - - - - - - -
21/01:00am 14.1 NW 4 7 1016.0 - - - - - - - - -
21/12:30am 14.1 NNW 5 8 1016.1 - - - - - - - - -
21/12:00am 14.1 NW 4 6 1016.0 - - - - - - - - -
 
Date/Time
EST
Temp

°C
Wind Pressure Rain
since 9am
mm
Weather Cloud Vis
km
Sea
Height
m
Swell
Dir
 
Speed
knots
Gust
knots
hPa Trend Height
m
Period
s
Dir
20/11:30pm 14.5 NW 4 6 1016.2 - - - - - - - - -
20/11:00pm 14.6 NW 5 7 1016.4 - - - - - - - - -
20/10:30pm 14.8 WNW 5 7 1016.6 - - - - - - - - -
20/10:00pm 14.8 W 5 7 1016.7 - - - - - - - - -
20/09:30pm 15.1 NW 6 9 1016.4 - - - - - - - - -
20/09:00pm 15.3 NNW 7 10 1016.3 - - - - - - - - -
20/08:30pm 15.5 WNW 7 11 1016.2 - - - - - - - - -
20/08:00pm 15.7 W 8 13 1016.1 - - - - - - - - -
20/07:30pm 16.2 WNW 7 10 1015.9 - - - - - - - - -
20/07:00pm 16.5 NW 6 9 1015.8 - - - - - - - - -
20/06:30pm 16.7 NW 5 7 1015.5 - - - - - - - - -
20/06:00pm 16.7 NNW 4 6 1015.3 - - - - - - - - -
20/05:30pm 16.8 N 7 8 1015.0 - - - - - - - - -
20/05:00pm 17.4 NW 6 10 1014.9 - - - - - - - - -
20/04:30pm 17.3 NNW 5 7 1014.9 - - - - - - - - -
20/04:00pm 16.9 NNW 8 12 1014.9 - - - - - - - - -
20/03:30pm 16.6 N 10 11 1014.9 - - - - - - - - -
20/03:00pm 16.2 NNW 9 12 1014.8 - - - - - - - - -
20/02:30pm 16.0 NNW 10 13 1015.1 - - - - - - - - -
20/02:00pm 15.3 NW 8 12 1015.2 - - - - - - - - -
20/01:30pm 15.6 W 14 17 1015.4 - - - - - - - - -
20/01:00pm 17.0 NW 14 21 1015.2 - - - - - - - - -
20/12:30pm 17.3 WNW 14 21 1015.5 - - - - - - - - -
20/12:00pm 17.1 NW 13 18 1015.7 - - - - - - - - -
20/11:30am 16.4 NW 14 20 1016.1 - - - - - - - - -
20/11:00am 16.3 NW 10 16 1016.2 - - - - - - - - -
20/10:30am 15.7 NW 12 19 1016.4 - - - - - - - - -
20/10:00am 15.1 NNW 12 19 1016.5 - - - - - - - - -
20/09:30am 14.8 NW 10 16 1016.6 - - - - - - - - -
20/09:00am 14.1 NNW 7 10 1016.6 - - - - - - - - -
20/08:30am 12.9 NNW 6 9 1016.5 - - - - - - - - -
20/08:00am 12.4 NNW 9 13 1016.4 - - - - - - - - -
20/07:30am 11.7 NNW 6 9 1016.1 - - - - - - - - -
20/07:00am 11.3 NW 6 8 1016.1 - - - - - - - - -
20/06:30am 11.4 NW 5 9 1016.0 - - - - - - - - -
20/06:00am 11.8 NW 4 7 1015.8 - - - - - - - - -
20/05:30am 11.7 W 3 6 1015.8 - - - - - - - - -
20/05:00am 11.9 WNW 6 8 1015.6 - - - - - - - - -
20/04:30am 11.9 NW 6 10 1015.5 - - - - - - - - -
20/04:00am 11.7 NNW 9 13 1015.6 - - - - - - - - -
20/03:30am 11.9 NW 8 12 1015.7 - - - - - - - - -
20/03:00am 11.6 NW 8 12 1015.9 - - - - - - - - -
20/02:30am 11.2 NW 5 10 1016.2 - - - - - - - - -
20/02:00am 10.9 WNW 6 8 1016.5 - - - - - - - - -
20/01:30am 11.8 NNW 7 9 1016.3 - - - - - - - - -
20/01:00am 11.9 N 6 7 1016.6 - - - - - - - - -
20/12:30am 11.3 WNW 4 6 1017.1 - - - - - - - - -
20/12:00am 11.3 W 4 6 1017.2 - - - - - - - - -
 
Date/Time
EST
Temp

°C
Wind Pressure Rain
since 9am
mm
Weather Cloud Vis
km
Sea
Height
m
Swell
Dir
 
Speed
knots
Gust
knots
hPa Trend Height
m
Period
s
Dir
19/11:30pm 11.4 NW 3 5 1017.3 - - - - - - - - -
19/11:00pm 11.5 NNW 4 5 1017.7 - - - - - - - - -
19/10:30pm 11.3 NNE 2 3 1018.0 - - - - - - - - -
19/10:00pm 11.3 W 5 7 1018.4 - - - - - - - - -
19/09:30pm 11.8 NW 5 7 1018.3 - - - - - - - - -
19/09:00pm 12.2 W 2 3 1018.3 - - - - - - - - -
19/08:30pm 11.8 N 5 6 1018.3 - - - - - - - - -
19/08:00pm 11.5 NNW 4 7 1018.7 - - - - - - - - -
19/07:30pm 12.9 NW 4 5 1018.8 - - - - - - - - -
19/07:00pm 12.9 WNW 3 4 1018.7 - - - - - - - - -
19/06:30pm 12.9 NW 4 5 1018.6 - - - - - - - - -
19/06:00pm 12.8 WNW 5 6 1018.6 - - - - - - - - -
19/05:30pm 13.3 W 5 9 1018.6 - - - - - - - - -
19/05:00pm 12.7 SW 8 11 1018.8 - - - - - - - - -
19/04:30pm 13.8 SW 6 9 1018.8 - - - - - - - - -
19/04:00pm 13.8 W 8 11 1019.0 - - - - - - - - -
19/03:30pm 13.6 WSW 5 8 1019.0 - - - - - - - - -
19/03:00pm 13.1 WSW 11 16 1019.2 - - - - - - - - -
19/02:30pm 13.8 WSW 5 9 1019.4 - - - - - - - - -
19/02:00pm 14.6 WSW 5 10 1019.5 - - - - - - - - -
19/01:30pm 14.1 WSW 6 7 1019.9 - - - - - - - - -
19/01:00pm 13.7 W 8 11 1020.4 - - - - - - - - -
19/12:30pm 13.8 WNW 6 10 1020.7 - - - - - - - - -
19/12:00pm 13.5 NNW 4 8 1021.1 - - - - - - - - -
19/11:30am 12.8 NW 6 9 1021.5 - - - - - - - - -
19/11:00am 13.6 WNW 7 11 1021.5 - - - - - - - - -
19/10:30am 13.4 NW 7 10 1021.6 - - - - - - - - -
19/10:00am 14.1 SW 7 10 1021.8 - - - - - - - - -
19/09:30am 13.7 SW 5 8 1021.8 - - - - - - - - -
19/09:00am 12.2 WNW 6 7 1021.9 - - - - - - - - -
19/08:30am 12.2 W 5 10 1021.6 - - - - - - - - -
19/08:00am 13.2 SSW 6 8 1021.4 - - - - - - - - -
19/07:30am 13.1 SW 9 12 1021.1 - - - - - - - - -
19/07:00am 11.2 W 6 8 1021.0 - - - - - - - - -
19/06:30am 10.7 W 4 6 1020.8 - - - - - - - - -
19/06:00am 11.1 WNW 5 7 1020.7 - - - - - - - - -
19/05:30am 11.2 W 6 8 1020.7 - - - - - - - - -
19/05:00am 11.2 W 10 13 1020.6 - - - - - - - - -
19/04:30am 12.1 W 6 8 1020.4 - - - - - - - - -
19/04:00am 12.2 WSW 5 6 1020.5 - - - - - - - - -
19/03:30am 12.8 SW 5 7 1020.7 - - - - - - - - -
19/03:00am 13.2 SSW 9 13 1020.8 - - - - - - - - -
19/02:30am 13.4 SSW 9 13 1021.0 - - - - - - - - -
19/02:00am 13.8 SSW 8 11 1021.1 - - - - - - - - -
19/01:30am 13.5 SW 3 5 1021.2 - - - - - - - - -
19/01:00am 13.8 SW 5 7 1021.2 - - - - - - - - -
19/12:30am 13.4 WSW 5 6 1021.3 - - - - - - - - -
19/12:00am 13.2 WSW 9 13 1021.4 - - - - - - - - -
 
Date/Time
EST
Temp

°C
Wind Pressure Rain
since 9am
mm
Weather Cloud Vis
km
Sea
Height
m
Swell
Dir
 
Speed
knots
Gust
knots
hPa Trend Height
m
Period
s
Dir
18/11:30pm 13.4 W 5 7 1021.4 - - - - - - - - -
18/11:00pm 13.4 WSW 4 5 1021.6 - - - - - - - - -
18/10:30pm 13.2 WSW 9 14 1021.7 - - - - - - - - -
18/10:00pm 14.4 SW 6 9 1021.5 - - - - - - - - -
18/09:30pm 14.6 SSW 9 14 1021.6 - - - - - - - - -
18/09:00pm 14.4 SW 6 9 1021.5 - - - - - - - - -
18/08:30pm 14.2 SSW 11 16 1021.3 - - - - - - - - -
18/08:00pm 14.3 SW 6 10 1021.1 - - - - - - - - -
18/07:30pm 13.8 S 8 11 1021.1 - - - - - - - - -
18/07:00pm 14.4 SSW 11 16 1021.0 - - - - - - - - -
18/06:30pm 14.5 SSW 10 15 1020.8 - - - - - - - - -

Other Formats:

Comma delimited format used in spreadsheet applications
http://www.bom.gov.au/fwo/IDV60701/IDV60701.95826.axf

JavaScript Object Notation format (JSON) in row-major order
http://www.bom.gov.au/fwo/IDV60701/IDV60701.95826.json